Time;durP1;ratioP1;P1;durP2;ratioP2;P2;SDS_P1;SDS_P2;PMS_P1;PMS_P2;Temp;Humidity;BMP_temperature;BMP_pressure;BME280_temperature;BME280_humidity;BME280_pressure;Samples;Min_cycle;Max_cycle;Signal;HPM_P1;HPM_P2
2022/10/20 00:00:03;;;;;;;22.75;6.25;;;;;;;;;;7394522;19;20014;-79
2022/10/20 00:02:29;;;;;;;14.27;6.13;;;;;;;;;;7390526;19;20014;-78
2022/10/20 00:04:54;;;;;;;12.93;6.47;;;;;;;;;;7390093;19;19998;-78
2022/10/20 00:07:19;;;;;;;13.25;6.10;;;;;;;;;;7391898;19;20022;-78
2022/10/20 00:09:44;;;;;;;11.02;5.80;;;;;;;;;;7391625;19;19999;-77
2022/10/20 00:12:10;;;;;;;12.30;5.85;;;;;;;;;;7389905;19;19998;-78
2022/10/20 00:14:35;;;;;;;10.10;5.57;;;;;;;;;;7390533;19;20003;-77
2022/10/20 00:17:00;;;;;;;9.55;5.80;;;;;;;;;;7393466;19;19999;-78
2022/10/20 00:19:27;;;;;;;11.10;6.13;;;;;;;;;;7390959;19;19999;-77
2022/10/20 00:21:52;;;;;;;11.70;6.28;;;;;;;;;;7388075;19;20013;-77
2022/10/20 00:24:20;;;;;;;12.40;5.85;;;;;;;;;;7389535;19;20066;-77
2022/10/20 00:26:46;;;;;;;12.07;5.63;;;;;;;;;;7391287;19;20476;-78
2022/10/20 00:29:11;;;;;;;11.38;5.75;;;;;;;;;;7389165;19;20003;-77
2022/10/20 00:31:37;;;;;;;10.60;6.05;;;;;;;;;;7388633;19;19998;-78
2022/10/20 00:34:02;;;;;;;11.70;5.90;;;;;;;;;;7390602;19;20065;-78
2022/10/20 00:36:28;;;;;;;10.85;5.90;;;;;;;;;;7390723;19;20006;-76
2022/10/20 00:38:58;;;;;;;10.70;6.28;;;;;;;;;;7390524;19;20075;-77
2022/10/20 00:41:24;;;;;;;8.37;4.93;;;;;;;;;;7387896;19;20350;-77
2022/10/20 00:43:53;;;;;;;12.00;5.95;;;;;;;;;;7391121;19;20002;-77
2022/10/20 00:46:40;;;;;;;11.23;5.53;;;;;;;;;;7390319;19;20030;-77
2022/10/20 00:49:15;;;;;;;11.82;5.93;;;;;;;;;;7390258;19;20463;-77
2022/10/20 00:51:41;;;;;;;9.85;5.53;;;;;;;;;;7387723;19;20033;-77
2022/10/20 00:54:11;;;;;;;10.98;5.97;;;;;;;;;;7389962;19;20475;-78
2022/10/20 00:56:40;;;;;;;12.15;5.57;;;;;;;;;;7389545;19;20002;-78
2022/10/20 00:59:07;;;;;;;11.88;5.68;;;;;;;;;;7390247;19;20003;-78
2022/10/20 01:01:32;;;;;;;9.52;4.90;;;;;;;;;;7387200;19;20082;-77
2022/10/20 01:03:58;;;;;;;9.20;5.30;;;;;;;;;;7388381;19;20355;-80
2022/10/20 01:06:23;;;;;;;11.82;5.40;;;;;;;;;;7389123;19;20017;-78
2022/10/20 01:08:51;;;;;;;9.43;5.18;;;;;;;;;;7388909;19;20074;-77
2022/10/20 01:11:37;;;;;;;13.23;5.88;;;;;;;;;;7384955;19;20006;-77
2022/10/20 01:14:13;;;;;;;12.10;5.50;;;;;;;;;;7392140;19;20010;-78
2022/10/20 01:16:57;;;;;;;11.77;5.40;;;;;;;;;;7386933;19;20333;-78
2022/10/20 01:19:41;;;;;;;9.13;5.07;;;;;;;;;;7382945;19;20448;-78
2022/10/20 01:22:50;;;;;;;7.90;5.13;;;;;;;;;;7383957;19;20006;-76
2022/10/20 01:25:25;;;;;;;8.32;5.25;;;;;;;;;;7387735;19;20002;-77
2022/10/20 01:28:18;;;;;;;8.73;5.30;;;;;;;;;;7385920;19;19998;-77
2022/10/20 01:30:47;;;;;;;15.70;5.82;;;;;;;;;;7387051;19;20006;-79
2022/10/20 01:33:30;;;;;;;10.05;5.15;;;;;;;;;;7387112;19;20450;-78
2022/10/20 01:36:06;;;;;;;12.88;5.90;;;;;;;;;;7392741;19;19995;-78
2022/10/20 01:38:41;;;;;;;10.52;5.30;;;;;;;;;;7393672;19;20007;-78
2022/10/20 01:41:16;;;;;;;11.45;5.20;;;;;;;;;;7386229;19;20023;-78
2022/10/20 01:43:44;;;;;;;10.18;5.25;;;;;;;;;;7386434;19;20376;-78
2022/10/20 01:46:11;;;;;;;10.52;4.57;;;;;;;;;;7385252;19;20084;-78
2022/10/20 01:48:39;;;;;;;11.35;5.88;;;;;;;;;;7385249;19;20007;-77
2022/10/20 01:51:04;;;;;;;14.52;4.95;;;;;;;;;;7384969;19;19995;-78
2022/10/20 01:53:30;;;;;;;12.82;4.90;;;;;;;;;;7387669;19;20026;-78
2022/10/20 01:55:57;;;;;;;8.75;5.03;;;;;;;;;;7386051;19;19998;-78
2022/10/20 01:59:13;;;;;;;12.60;5.47;;;;;;;;;;7388017;19;20003;-77
2022/10/20 02:01:47;;;;;;;11.27;5.28;;;;;;;;;;7380546;19;19999;-78
2022/10/20 02:04:13;;;;;;;12.13;5.40;;;;;;;;;;7382384;19;20003;-78
2022/10/20 02:06:55;;;;;;;12.50;5.25;;;;;;;;;;7388871;19;20010;-78
2022/10/20 02:09:33;;;;;;;17.10;5.43;;;;;;;;;;7389067;19;20006;-78
2022/10/20 02:12:04;;;;;;;10.98;5.40;;;;;;;;;;7385478;19;20035;-78
2022/10/20 02:14:32;;;;;;;9.57;5.03;;;;;;;;;;7392738;19;20345;-78
2022/10/20 02:17:00;;;;;;;11.18;5.20;;;;;;;;;;7387424;19;20002;-77
2022/10/20 02:19:32;;;;;;;9.23;5.25;;;;;;;;;;7387229;19;20005;-78
2022/10/20 02:21:58;;;;;;;9.35;5.03;;;;;;;;;;7383954;19;20023;-77
2022/10/20 02:24:28;;;;;;;10.32;5.10;;;;;;;;;;7385045;19;20003;-77
2022/10/20 02:26:57;;;;;;;8.32;5.18;;;;;;;;;;7387735;19;20002;-76
2022/10/20 02:29:29;;;;;;;10.98;5.60;;;;;;;;;;7394345;19;20456;-76
2022/10/20 02:31:55;;;;;;;11.07;5.38;;;;;;;;;;7391031;19;20404;-79
2022/10/20 02:34:24;;;;;;;10.90;4.95;;;;;;;;;;7394194;19;20429;-78
2022/10/20 02:36:54;;;;;;;10.52;5.25;;;;;;;;;;7393589;19;20010;-78
2022/10/20 02:39:19;;;;;;;10.57;5.18;;;;;;;;;;7393806;19;20484;-78
2022/10/20 02:41:44;;;;;;;8.70;5.40;;;;;;;;;;7393583;19;20014;-77
2022/10/20 02:44:09;;;;;;;10.93;5.55;;;;;;;;;;7394773;19;20014;-78
2022/10/20 02:46:35;;;;;;;8.57;5.05;;;;;;;;;;7393799;19;20028;-77
2022/10/20 02:49:00;;;;;;;9.25;5.15;;;;;;;;;;7393584;19;20007;-78
2022/10/20 02:51:25;;;;;;;9.85;5.22;;;;;;;;;;7390305;19;20002;-78
2022/10/20 02:53:53;;;;;;;11.77;6.13;;;;;;;;;;7393565;19;19998;-78
2022/10/20 02:56:19;;;;;;;10.88;5.40;;;;;;;;;;7393744;19;20007;-77
2022/10/20 02:58:44;;;;;;;18.67;5.53;;;;;;;;;;7393010;19;20085;-77
2022/10/20 03:01:09;;;;;;;11.80;5.38;;;;;;;;;;7390055;19;20014;-77
2022/10/20 03:03:35;;;;;;;9.75;5.45;;;;;;;;;;7389810;19;20382;-77
2022/10/20 03:06:12;;;;;;;11.20;5.38;;;;;;;;;;7395263;19;20002;-77
2022/10/20 03:08:38;;;;;;;9.82;4.90;;;;;;;;;;7392745;19;20009;-78
2022/10/20 03:11:04;;;;;;;9.93;4.85;;;;;;;;;;7389866;19;19998;-77
2022/10/20 03:13:29;;;;;;;12.77;5.93;;;;;;;;;;7390747;19;20460;-77
2022/10/20 03:15:54;;;;;;;11.07;5.43;;;;;;;;;;7392428;19;19995;-77
2022/10/20 03:18:20;;;;;;;10.18;5.72;;;;;;;;;;7392084;19;20002;-77
2022/10/20 03:20:45;;;;;;;9.95;5.43;;;;;;;;;;7389104;19;20006;-77
2022/10/20 03:23:11;;;;;;;11.23;5.15;;;;;;;;;;7389655;19;20002;-79
2022/10/20 03:25:36;;;;;;;9.98;5.35;;;;;;;;;;7392345;19;20017;-78
2022/10/20 03:28:01;;;;;;;9.57;5.57;;;;;;;;;;7391974;19;20003;-77
2022/10/20 03:30:27;;;;;;;7.22;5.20;;;;;;;;;;7390968;19;20015;-78
2022/10/20 03:32:52;;;;;;;10.35;5.88;;;;;;;;;;7390764;19;20002;-78
2022/10/20 03:35:18;;;;;;;9.95;5.50;;;;;;;;;;7392362;19;20007;-79
2022/10/20 03:37:43;;;;;;;8.88;5.55;;;;;;;;;;7391485;19;20471;-78
2022/10/20 03:40:09;;;;;;;13.38;5.18;;;;;;;;;;7388216;19;20010;-77
2022/10/20 03:42:34;;;;;;;10.60;5.07;;;;;;;;;;7389673;19;20031;-78
2022/10/20 03:45:00;;;;;;;11.00;5.97;;;;;;;;;;7391213;19;20595;-78
2022/10/20 03:47:25;;;;;;;12.18;5.43;;;;;;;;;;7390990;19;19994;-79
2022/10/20 03:49:51;;;;;;;12.15;5.13;;;;;;;;;;7390887;19;19991;-78
2022/10/20 03:52:16;;;;;;;9.70;5.65;;;;;;;;;;7389647;19;20002;-77
2022/10/20 03:54:41;;;;;;;14.50;5.18;;;;;;;;;;7391275;19;19998;-78
2022/10/20 03:57:07;;;;;;;8.20;5.50;;;;;;;;;;7390427;19;20353;-79
2022/10/20 03:59:32;;;;;;;12.32;5.63;;;;;;;;;;7390995;19;20002;-78
2022/10/20 04:01:57;;;;;;;13.30;5.80;;;;;;;;;;7387424;19;19994;-77
2022/10/20 04:04:23;;;;;;;9.30;5.40;;;;;;;;;;7388631;19;20009;-77
2022/10/20 04:06:48;;;;;;;10.85;5.22;;;;;;;;;;7393981;19;20019;-78
2022/10/20 04:09:36;;;;;;;13.40;6.00;;;;;;;;;;7390872;19;19994;-80
2022/10/20 04:12:02;;;;;;;8.82;5.50;;;;;;;;;;7388052;19;20010;-77
2022/10/20 04:14:27;;;;;;;10.43;6.07;;;;;;;;;;7391018;19;19999;-77
2022/10/20 04:16:52;;;;;;;12.80;6.25;;;;;;;;;;7390867;19;19994;-77
2022/10/20 04:19:18;;;;;;;11.73;5.65;;;;;;;;;;7391704;19;19995;-79
2022/10/20 04:21:43;;;;;;;9.05;5.53;;;;;;;;;;7389185;19;20098;-78
2022/10/20 04:24:08;;;;;;;11.25;5.72;;;;;;;;;;7391255;19;20377;-77
2022/10/20 04:26:34;;;;;;;9.52;5.47;;;;;;;;;;7392268;19;20018;-77
2022/10/20 04:28:59;;;;;;;9.15;5.50;;;;;;;;;;7398665;19;19998;-78
2022/10/20 04:31:24;;;;;;;9.35;6.20;;;;;;;;;;7398580;19;19999;-77
2022/10/20 04:33:50;;;;;;;12.23;5.60;;;;;;;;;;7394300;19;20350;-77
2022/10/20 04:36:18;;;;;;;12.30;5.95;;;;;;;;;;7395094;19;20010;-78
2022/10/20 04:38:55;;;;;;;10.48;5.85;;;;;;;;;;7392399;19;20004;-78
2022/10/20 04:41:21;;;;;;;11.63;5.53;;;;;;;;;;7392232;19;20002;-77
2022/10/20 04:43:51;;;;;;;10.75;5.55;;;;;;;;;;7392360;19;19991;-78
2022/10/20 04:46:16;;;;;;;12.70;5.85;;;;;;;;;;7392250;19;20013;-78
2022/10/20 04:48:45;;;;;;;8.18;5.57;;;;;;;;;;7394272;19;20227;-78
2022/10/20 04:51:12;;;;;;;9.82;5.40;;;;;;;;;;7386460;19;20002;-78
2022/10/20 04:53:38;;;;;;;10.38;6.22;;;;;;;;;;7390507;19;20308;-78
2022/10/20 04:56:05;;;;;;;10.57;5.85;;;;;;;;;;7389843;19;20062;-77
2022/10/20 04:58:31;;;;;;;9.10;5.80;;;;;;;;;;7386102;19;20460;-78
2022/10/20 05:01:02;;;;;;;11.80;5.50;;;;;;;;;;7384549;19;20042;-78
2022/10/20 05:03:27;;;;;;;8.45;5.22;;;;;;;;;;7385602;19;20005;-77
2022/10/20 05:05:52;;;;;;;11.98;5.80;;;;;;;;;;7388284;19;19999;-79
2022/10/20 05:08:18;;;;;;;11.52;5.50;;;;;;;;;;7386756;19;19991;-77
2022/10/20 05:10:43;;;;;;;10.13;5.78;;;;;;;;;;7392497;19;20328;-76
2022/10/20 05:13:09;;;;;;;9.38;5.60;;;;;;;;;;7390766;19;20012;-76
2022/10/20 05:15:34;;;;;;;10.95;5.15;;;;;;;;;;7392661;19;19995;-76
2022/10/20 05:17:59;;;;;;;11.93;5.68;;;;;;;;;;7398122;19;20313;-77
2022/10/20 05:20:25;;;;;;;9.63;5.43;;;;;;;;;;7400859;19;19999;-77
2022/10/20 05:22:50;;;;;;;10.13;5.95;;;;;;;;;;7397874;19;20452;-78
2022/10/20 05:25:16;;;;;;;11.95;6.82;;;;;;;;;;7394612;19;19994;-83
2022/10/20 05:27:41;;;;;;;10.00;5.63;;;;;;;;;;7389334;19;19991;-83
2022/10/20 05:30:07;;;;;;;8.48;5.22;;;;;;;;;;7389118;19;19995;-81
2022/10/20 05:32:32;;;;;;;16.40;6.15;;;;;;;;;;7387379;19;20002;-80
2022/10/20 05:34:58;;;;;;;12.35;5.57;;;;;;;;;;7388818;19;20044;-79
2022/10/20 05:37:23;;;;;;;12.25;6.20;;;;;;;;;;7388590;19;20538;-79
2022/10/20 05:39:48;;;;;;;11.88;6.13;;;;;;;;;;7365024;19;20036;-77
2022/10/20 05:42:14;;;;;;;10.40;5.68;;;;;;;;;;7375323;19;19999;-78
2022/10/20 05:44:39;;;;;;;9.90;5.72;;;;;;;;;;7338193;19;20305;-78
2022/10/20 05:47:04;;;;;;;12.00;5.82;;;;;;;;;;7382962;19;19994;-79
2022/10/20 05:49:30;;;;;;;11.77;5.72;;;;;;;;;;7384886;19;19999;-78
2022/10/20 05:51:55;;;;;;;9.90;6.20;;;;;;;;;;7376921;19;20005;-78
2022/10/20 05:54:20;;;;;;;12.73;6.47;;;;;;;;;;7389690;19;20031;-78
2022/10/20 05:56:46;;;;;;;10.18;5.88;;;;;;;;;;7385437;19;20023;-78
2022/10/20 05:59:12;;;;;;;13.55;7.13;;;;;;;;;;7388202;19;20001;-78
2022/10/20 06:01:46;;;;;;;14.25;7.13;;;;;;;;;;7387529;19;20042;-79
2022/10/20 06:04:18;;;;;;;13.60;6.85;;;;;;;;;;7391906;19;20011;-79
2022/10/20 06:06:43;;;;;;;10.25;6.97;;;;;;;;;;7396556;19;20018;-79
2022/10/20 06:09:09;;;;;;;13.00;6.45;;;;;;;;;;7397203;19;20520;-79
2022/10/20 06:11:36;;;;;;;10.35;6.68;;;;;;;;;;7392942;19;20415;-78
2022/10/20 06:14:02;;;;;;;17.17;6.72;;;;;;;;;;7396833;19;19998;-78
2022/10/20 06:16:28;;;;;;;11.35;6.32;;;;;;;;;;7394455;19;20382;-79
2022/10/20 06:18:56;;;;;;;11.18;6.43;;;;;;;;;;7396022;19;20493;-79
2022/10/20 06:21:24;;;;;;;14.75;7.05;;;;;;;;;;7392703;19;20006;-79
2022/10/20 06:23:49;;;;;;;12.23;7.03;;;;;;;;;;7394268;19;20002;-79
2022/10/20 06:26:18;;;;;;;14.43;6.30;;;;;;;;;;7397366;19;20420;-79
2022/10/20 06:28:44;;;;;;;14.05;5.95;;;;;;;;;;7395758;19;20013;-78
2022/10/20 06:31:23;;;;;;;22.70;12.10;;;;;;;;;;7392354;19;20006;-78
2022/10/20 06:33:49;;;;;;;12.50;7.82;;;;;;;;;;7397671;19;20002;-79
2022/10/20 06:36:15;;;;;;;10.98;6.07;;;;;;;;;;7397063;19;20022;-79
2022/10/20 06:38:41;;;;;;;10.18;6.60;;;;;;;;;;7395043;19;20003;-79
2022/10/20 06:41:09;;;;;;;13.30;7.22;;;;;;;;;;7392820;19;20002;-79
2022/10/20 06:43:35;;;;;;;10.52;6.55;;;;;;;;;;7392528;19;20007;-78
2022/10/20 06:46:03;;;;;;;15.90;7.20;;;;;;;;;;7396764;19;20465;-78
2022/10/20 06:48:29;;;;;;;10.52;6.68;;;;;;;;;;7394270;19;20002;-79
2022/10/20 06:50:56;;;;;;;11.07;6.30;;;;;;;;;;7392956;19;20013;-79
2022/10/20 06:53:21;;;;;;;10.25;6.75;;;;;;;;;;7394555;19;20005;-79
2022/10/20 06:55:57;;;;;;;11.60;6.57;;;;;;;;;;7395384;19;20388;-79
2022/10/20 06:58:22;;;;;;;12.73;6.70;;;;;;;;;;7396513;19;20004;-78
2022/10/20 07:01:00;;;;;;;10.70;6.43;;;;;;;;;;7393554;19;20052;-79
2022/10/20 07:03:30;;;;;;;8.35;5.85;;;;;;;;;;7392693;19;20006;-79
2022/10/20 07:05:55;;;;;;;17.88;6.80;;;;;;;;;;7395506;19;20062;-79
2022/10/20 07:08:22;;;;;;;11.88;6.60;;;;;;;;;;7397024;19;21116;-79
2022/10/20 07:10:56;;;;;;;11.93;7.03;;;;;;;;;;7393078;19;20099;-79
2022/10/20 07:13:21;;;;;;;12.32;7.43;;;;;;;;;;7393659;19;20002;-81
2022/10/20 07:15:46;;;;;;;14.45;6.97;;;;;;;;;;7394840;19;20010;-80
2022/10/20 07:18:11;;;;;;;11.52;6.57;;;;;;;;;;7398701;19;20066;-79
2022/10/20 07:20:37;;;;;;;12.48;6.60;;;;;;;;;;7391978;19;20058;-78
2022/10/20 07:23:02;;;;;;;10.77;6.50;;;;;;;;;;7391975;19;20026;-78
2022/10/20 07:25:28;;;;;;;14.13;6.88;;;;;;;;;;7393587;19;20037;-78
2022/10/20 07:27:54;;;;;;;13.30;6.95;;;;;;;;;;7394076;19;20013;-78
2022/10/20 07:30:19;;;;;;;12.32;7.30;;;;;;;;;;7392596;19;19995;-78
2022/10/20 07:32:45;;;;;;;14.63;7.22;;;;;;;;;;7394066;19;20027;-79
2022/10/20 07:35:10;;;;;;;11.85;7.28;;;;;;;;;;7393399;19;20002;-79
2022/10/20 07:37:35;;;;;;;12.88;7.72;;;;;;;;;;7394312;19;20587;-80
2022/10/20 07:40:01;;;;;;;13.63;7.53;;;;;;;;;;7394690;19;20015;-78
2022/10/20 07:42:27;;;;;;;13.13;7.35;;;;;;;;;;7392670;19;19999;-80
2022/10/20 07:44:53;;;;;;;15.88;7.93;;;;;;;;;;7394900;19;20060;-79
2022/10/20 07:47:18;;;;;;;12.10;7.20;;;;;;;;;;7393575;19;19999;-78
2022/10/20 07:49:43;;;;;;;14.85;7.93;;;;;;;;;;7393445;19;20483;-79
2022/10/20 07:52:10;;;;;;;12.23;7.78;;;;;;;;;;7392262;19;19998;-80
2022/10/20 07:54:35;;;;;;;12.07;7.75;;;;;;;;;;7392422;19;20010;-78
2022/10/20 07:57:00;;;;;;;15.05;7.35;;;;;;;;;;7394126;19;20002;-79
2022/10/20 07:59:29;;;;;;;14.80;8.25;;;;;;;;;;7392872;19;19999;-79
2022/10/20 08:01:54;;;;;;;13.75;7.85;;;;;;;;;;7388636;19;20003;-79
2022/10/20 08:04:20;;;;;;;13.07;7.03;;;;;;;;;;7385707;19;20030;-79
2022/10/20 08:06:46;;;;;;;13.80;8.00;;;;;;;;;;7389584;19;19999;-79
2022/10/20 08:09:11;;;;;;;16.10;8.13;;;;;;;;;;7390697;19;19999;-79
2022/10/20 08:11:36;;;;;;;19.63;10.27;;;;;;;;;;7386884;19;20318;-79
2022/10/20 08:14:02;;;;;;;20.52;10.30;;;;;;;;;;7392640;19;20006;-80
2022/10/20 08:16:27;;;;;;;14.73;7.18;;;;;;;;;;7389269;19;20180;-80
2022/10/20 08:18:53;;;;;;;12.60;7.80;;;;;;;;;;7390298;19;20087;-79
2022/10/20 08:21:20;;;;;;;12.98;8.07;;;;;;;;;;7388579;19;20014;-79
2022/10/20 08:23:47;;;;;;;18.98;8.57;;;;;;;;;;7391054;19;19990;-79
2022/10/20 08:26:17;;;;;;;15.40;7.95;;;;;;;;;;7391713;19;20006;-79
2022/10/20 08:28:42;;;;;;;14.82;8.23;;;;;;;;;;7390720;19;19998;-79
2022/10/20 08:31:08;;;;;;;18.95;7.85;;;;;;;;;;7388817;19;19998;-79
2022/10/20 08:33:34;;;;;;;15.63;8.18;;;;;;;;;;7391796;19;19994;-79
2022/10/20 08:36:01;;;;;;;18.77;8.52;;;;;;;;;;7391381;19;19991;-79
2022/10/20 08:38:27;;;;;;;17.15;8.70;;;;;;;;;;7390390;19;20002;-79
2022/10/20 08:40:52;;;;;;;15.32;8.45;;;;;;;;;;7389784;19;20483;-79
2022/10/20 08:43:18;;;;;;;14.30;7.93;;;;;;;;;;7394767;19;19994;-78
2022/10/20 08:45:44;;;;;;;15.13;9.10;;;;;;;;;;7399764;19;19999;-78
2022/10/20 08:48:17;;;;;;;14.00;8.50;;;;;;;;;;7399248;19;19999;-79
2022/10/20 08:50:45;;;;;;;15.48;8.23;;;;;;;;;;7390805;19;20005;-78
2022/10/20 08:53:11;;;;;;;12.43;7.40;;;;;;;;;;7391395;19;20028;-78
2022/10/20 08:55:36;;;;;;;16.85;8.15;;;;;;;;;;7392608;19;19995;-79
2022/10/20 08:58:05;;;;;;;12.80;7.50;;;;;;;;;;7393390;19;20055;-79
2022/10/20 09:00:34;;;;;;;14.88;8.10;;;;;;;;;;7390232;19;19995;-79
2022/10/20 09:03:20;;;;;;;15.07;7.65;;;;;;;;;;7396668;19;19995;-80
2022/10/20 09:05:51;;;;;;;16.52;8.20;;;;;;;;;;7391704;19;19998;-82
2022/10/20 09:08:18;;;;;;;14.45;8.77;;;;;;;;;;7393128;19;20005;-80
2022/10/20 09:10:48;;;;;;;15.80;8.30;;;;;;;;;;7389509;19;20006;-80
2022/10/20 09:13:24;;;;;;;18.88;8.77;;;;;;;;;;7390186;19;19999;-81
2022/10/20 09:15:57;;;;;;;22.25;10.75;;;;;;;;;;7390114;19;20475;-82
2022/10/20 09:18:23;;;;;;;21.83;12.75;;;;;;;;;;7393211;19;20441;-82
2022/10/20 09:21:01;;;;;;;15.32;7.70;;;;;;;;;;7388868;19;20002;-81
2022/10/20 09:23:33;;;;;;;14.43;7.93;;;;;;;;;;7390213;19;20425;-83
2022/10/20 09:25:59;;;;;;;13.52;7.40;;;;;;;;;;7391340;19;19995;-83
2022/10/20 09:28:27;;;;;;;16.02;8.48;;;;;;;;;;7393151;19;20008;-83
2022/10/20 09:30:53;;;;;;;14.38;8.15;;;;;;;;;;7388284;19;20015;-82
2022/10/20 09:33:37;;;;;;;16.35;8.57;;;;;;;;;;7389034;19;20006;-83
2022/10/20 09:36:17;;;;;;;14.40;8.38;;;;;;;;;;7392427;19;20380;-83
2022/10/20 09:38:46;;;;;;;21.60;13.02;;;;;;;;;;7396568;19;20015;-82
2022/10/20 09:41:28;;;;;;;13.85;8.50;;;;;;;;;;7394178;19;19999;-82
2022/10/20 09:43:58;;;;;;;16.42;9.00;;;;;;;;;;7395659;19;20500;-79
2022/10/20 09:46:42;;;;;;;15.00;8.93;;;;;;;;;;7398845;19;20002;-80
2022/10/20 09:49:22;;;;;;;23.58;9.40;;;;;;;;;;7397299;19;19999;-82
2022/10/20 09:51:48;;;;;;;15.65;8.55;;;;;;;;;;7394437;19;20365;-70
2022/10/20 09:54:18;;;;;;;14.88;8.57;;;;;;;;;;7398147;19;20062;-69
2022/10/20 09:56:45;;;;;;;16.15;8.63;;;;;;;;;;7395621;19;20098;-81
2022/10/20 09:59:42;;;;;;;17.10;9.07;;;;;;;;;;7396231;19;19999;-83
2022/10/20 10:02:13;;;;;;;17.00;9.02;;;;;;;;;;7397427;19;20339;-83
2022/10/20 10:04:44;;;;;;;17.77;9.48;;;;;;;;;;7393400;19;20007;-84
2022/10/20 10:07:24;;;;;;;14.15;9.02;;;;;;;;;;7396690;19;20006;-83
2022/10/20 10:10:01;;;;;;;14.95;8.88;;;;;;;;;;7396701;19;20019;-84
2022/10/20 10:12:29;;;;;;;13.52;8.60;;;;;;;;;;7393698;19;20032;-84
2022/10/20 10:15:00;;;;;;;15.00;8.68;;;;;;;;;;7395938;19;20483;-85
2022/10/20 10:17:39;;;;;;;;;;;;;;;;;;7396837;19;20002;-82
2022/10/20 10:20:22;;;;;;;14.07;8.75;;;;;;;;;;7397490;19;19935;-82
2022/10/20 10:22:48;;;;;;;20.65;9.70;;;;;;;;;;7392076;19;20370;-80
2022/10/20 10:25:17;;;;;;;16.48;9.20;;;;;;;;;;7397001;19;20066;-80
2022/10/20 10:27:57;;;;;;;22.38;9.80;;;;;;;;;;7393728;19;19998;-80
2022/10/20 10:30:31;;;;;;;18.02;9.57;;;;;;;;;;7398027;19;20343;-82
2022/10/20 10:32:57;;;;;;;18.17;9.68;;;;;;;;;;7397038;19;20006;-81
2022/10/20 10:35:35;;;;;;;15.93;9.68;;;;;;;;;;7396614;19;19999;-82
2022/10/20 10:38:00;;;;;;;15.52;8.85;;;;;;;;;;7397577;19;20001;-81
2022/10/20 10:40:44;;;;;;;16.73;9.90;;;;;;;;;;7398597;19;20000;-82
2022/10/20 10:43:23;;;;;;;17.20;9.05;;;;;;;;;;7393982;19;20003;-80
2022/10/20 10:45:57;;;;;;;18.60;11.43;;;;;;;;;;7397329;19;19999;-89
2022/10/20 10:48:34;;;;;;;18.48;9.50;;;;;;;;;;7405332;19;19990;-84
2022/10/20 10:51:04;;;;;;;14.88;9.13;;;;;;;;;;7393535;19;20066;-83
2022/10/20 10:54:03;;;;;;;16.90;8.45;;;;;;;;;;7395966;19;20002;-83
2022/10/20 10:56:40;;;;;;;18.17;8.57;;;;;;;;;;7392339;19;20002;-84
2022/10/20 10:59:26;;;;;;;15.68;9.05;;;;;;;;;;7395457;19;20006;-82
2022/10/20 11:02:22;;;;;;;13.77;8.68;;;;;;;;;;7390126;19;20486;-83
2022/10/20 11:04:47;;;;;;;19.40;9.15;;;;;;;;;;7392940;19;20002;-84
2022/10/20 11:07:50;;;;;;;17.35;9.02;;;;;;;;;;7394175;19;20086;-83
2022/10/20 11:10:46;;;;;;;14.10;9.20;;;;;;;;;;7396348;19;20002;-82
2022/10/20 11:13:34;;;;;;;16.40;8.68;;;;;;;;;;7393297;19;20008;-82
2022/10/20 11:16:13;;;;;;;17.88;8.68;;;;;;;;;;7395802;19;20307;-83
2022/10/20 11:19:16;;;;;;;13.52;8.40;;;;;;;;;;7393902;19;19999;-82
2022/10/20 11:22:12;;;;;;;13.20;8.10;;;;;;;;;;7390681;19;20558;-82
2022/10/20 11:25:06;;;;;;;15.75;8.82;;;;;;;;;;7388783;19;20010;-81
2022/10/20 11:27:36;;;;;;;15.05;8.88;;;;;;;;;;7395099;19;20104;-81
2022/10/20 11:30:20;;;;;;;12.65;8.15;;;;;;;;;;7394708;19;20006;-84
2022/10/20 11:33:17;;;;;;;14.88;9.05;;;;;;;;;;7391975;19;20003;-82
2022/10/20 11:35:56;;;;;;;18.65;9.20;;;;;;;;;;7393960;19;20514;-82
2022/10/20 11:38:39;;;;;;;13.40;8.50;;;;;;;;;;7392694;19;19995;-82
2022/10/20 11:41:15;;;;;;;14.73;8.70;;;;;;;;;;7389761;19;20010;-83
2022/10/20 11:44:18;;;;;;;16.83;9.38;;;;;;;;;;7393753;19;20070;-82
2022/10/20 11:47:01;;;;;;;15.75;9.00;;;;;;;;;;7392581;19;20006;-83
2022/10/20 11:49:31;;;;;;;17.70;8.75;;;;;;;;;;7393706;19;20038;-83
2022/10/20 11:52:07;;;;;;;20.17;8.48;;;;;;;;;;7392817;19;20342;-83
2022/10/20 11:54:43;;;;;;;14.52;9.38;;;;;;;;;;7391946;19;20003;-83
2022/10/20 11:57:21;;;;;;;16.13;9.02;;;;;;;;;;7392643;19;20002;-82
2022/10/20 12:00:05;;;;;;;18.55;9.32;;;;;;;;;;7391460;19;20009;-82
2022/10/20 12:02:47;;;;;;;15.00;8.07;;;;;;;;;;7390459;19;20006;-82
2022/10/20 12:05:15;;;;;;;13.80;8.90;;;;;;;;;;7392938;19;20017;-82
2022/10/20 12:08:05;;;;;;;20.90;9.75;;;;;;;;;;7393138;19;20024;-82
2022/10/20 12:10:34;;;;;;;15.73;8.73;;;;;;;;;;7390998;19;20010;-82
2022/10/20 12:13:24;;;;;;;17.30;8.20;;;;;;;;;;7390417;19;20472;-83
2022/10/20 12:15:51;;;;;;;14.48;8.88;;;;;;;;;;7394237;19;20338;-82
2022/10/20 12:18:37;;;;;;;21.45;9.35;;;;;;;;;;7392650;19;19994;-81
2022/10/20 12:21:05;;;;;;;16.00;8.80;;;;;;;;;;7388042;19;20002;-81
2022/10/20 12:23:43;;;;;;;18.50;9.88;;;;;;;;;;7392259;19;20009;-82
2022/10/20 12:26:38;;;;;;;18.20;8.25;;;;;;;;;;7392851;19;20450;-83
2022/10/20 12:29:31;;;;;;;35.30;18.17;;;;;;;;;;7392080;19;20022;-82
2022/10/20 12:32:23;;;;;;;19.63;9.45;;;;;;;;;;7391946;19;20015;-83
2022/10/20 12:35:08;;;;;;;17.83;9.30;;;;;;;;;;7391815;19;20019;-82
2022/10/20 12:37:35;;;;;;;14.07;8.80;;;;;;;;;;7388829;19;20034;-84
2022/10/20 12:40:06;;;;;;;14.30;8.55;;;;;;;;;;7393244;19;20019;-82
2022/10/20 12:42:37;;;;;;;16.67;8.95;;;;;;;;;;7398779;19;20046;-82
2022/10/20 12:45:22;;;;;;;18.77;9.40;;;;;;;;;;7403095;19;20002;-82
2022/10/20 12:47:58;;;;;;;15.13;8.57;;;;;;;;;;7400946;19;19991;-82
2022/10/20 12:50:34;;;;;;;15.85;8.57;;;;;;;;;;7394215;19;19991;-82
2022/10/20 12:53:18;;;;;;;15.07;8.60;;;;;;;;;;7392831;19;19994;-82
2022/10/20 12:55:46;;;;;;;17.42;8.88;;;;;;;;;;7393413;19;20002;-81
2022/10/20 12:58:58;;;;;;;15.23;8.93;;;;;;;;;;7391860;19;19994;-81
2022/10/20 13:01:23;;;;;;;;;;;;;;;;;;7394574;19;20034;-82
2022/10/20 13:03:51;;;;;;;15.18;8.85;;;;;;;;;;7398646;19;19933;-80
2022/10/20 13:06:22;;;;;;;17.30;8.63;;;;;;;;;;7404029;19;19994;-80
2022/10/20 13:09:03;;;;;;;17.75;9.57;;;;;;;;;;7397320;19;20054;-79
2022/10/20 13:11:45;;;;;;;16.85;9.15;;;;;;;;;;7388952;19;19999;-80
2022/10/20 13:14:29;;;;;;;14.98;8.82;;;;;;;;;;7394782;19;20001;-81
2022/10/20 13:17:20;;;;;;;18.15;9.77;;;;;;;;;;7393243;19;20100;-82
2022/10/20 13:19:51;;;;;;;14.35;9.07;;;;;;;;;;7397376;19;19997;-82
2022/10/20 13:22:48;;;;;;;19.48;9.95;;;;;;;;;;7393363;19;20401;-81
2022/10/20 13:25:25;;;;;;;16.05;10.15;;;;;;;;;;7390659;19;19999;-81
2022/10/20 13:28:01;;;;;;;23.08;10.32;;;;;;;;;;7391460;19;20030;-82
2022/10/20 13:30:26;;;;;;;18.40;9.85;;;;;;;;;;7391960;19;19990;-80
2022/10/20 13:33:11;;;;;;;19.75;9.75;;;;;;;;;;7388815;19;20001;-82
2022/10/20 13:35:55;;;;;;;16.38;10.15;;;;;;;;;;7389150;19;20002;-80
2022/10/20 13:38:45;;;;;;;18.80;10.13;;;;;;;;;;7390830;19;20531;-80
2022/10/20 13:41:37;;;;;;;22.17;10.13;;;;;;;;;;7388591;19;20496;-80
2022/10/20 13:44:40;;;;;;;18.00;10.43;;;;;;;;;;7390749;19;20448;-80
2022/10/20 13:47:20;;;;;;;15.25;9.60;;;;;;;;;;7383480;19;20493;-80
2022/10/20 13:50:04;;;;;;;17.58;10.45;;;;;;;;;;7390960;19;20527;-81
2022/10/20 13:52:32;;;;;;;16.73;9.93;;;;;;;;;;7387546;19;19999;-81
2022/10/20 13:54:59;;;;;;;20.58;11.95;;;;;;;;;;7389099;19;20002;-81
2022/10/20 13:57:33;;;;;;;22.92;14.43;;;;;;;;;;7389749;19;20009;-81
2022/10/20 14:00:03;;;;;;;18.52;9.90;;;;;;;;;;7390275;19;20058;-81
2022/10/20 14:02:33;;;;;;;15.95;9.73;;;;;;;;;;7386962;19;19999;-81
2022/10/20 14:05:19;;;;;;;19.70;10.73;;;;;;;;;;7386895;19;20005;-82
2022/10/20 14:07:45;;;;;;;22.83;11.50;;;;;;;;;;7390036;19;20091;-80
2022/10/20 14:10:23;;;;;;;18.48;11.05;;;;;;;;;;7385028;19;20006;-84
2022/10/20 14:12:49;;;;;;;20.55;11.68;;;;;;;;;;7388553;19;20011;-80
2022/10/20 14:15:19;;;;;;;19.42;10.98;;;;;;;;;;7387484;19;20002;-78
2022/10/20 14:17:58;;;;;;;19.20;10.98;;;;;;;;;;7388198;19;20397;-78
2022/10/20 14:20:24;;;;;;;21.15;11.65;;;;;;;;;;7390018;19;20073;-77
2022/10/20 14:22:52;;;;;;;17.27;10.98;;;;;;;;;;7389467;19;20019;-77
2022/10/20 14:25:18;;;;;;;19.35;11.40;;;;;;;;;;7396572;19;20016;-77
2022/10/20 14:27:44;;;;;;;21.63;11.30;;;;;;;;;;7396946;19;20070;-77
2022/10/20 14:30:16;;;;;;;17.27;11.23;;;;;;;;;;7395340;19;20015;-79
2022/10/20 14:32:43;;;;;;;19.75;11.88;;;;;;;;;;7394616;19;19999;-78
2022/10/20 14:35:38;;;;;;;21.45;11.77;;;;;;;;;;7397636;19;19999;-76
2022/10/20 14:38:18;;;;;;;24.33;13.85;;;;;;;;;;7397393;19;20006;-77
2022/10/20 14:40:55;;;;;;;45.50;27.13;;;;;;;;;;7396323;19;20007;-77
2022/10/20 14:43:23;;;;;;;20.60;12.32;;;;;;;;;;7392323;19;20027;-77
2022/10/20 14:45:59;;;;;;;24.48;11.98;;;;;;;;;;7395656;19;20002;-77
2022/10/20 14:48:47;;;;;;;26.00;12.50;;;;;;;;;;7398128;19;20041;-76
2022/10/20 14:51:31;;;;;;;24.70;13.02;;;;;;;;;;7392165;19;20477;-77
2022/10/20 14:54:19;;;;;;;18.50;12.25;;;;;;;;;;7396942;19;20002;-78
2022/10/20 14:56:57;;;;;;;23.63;12.95;;;;;;;;;;7393110;19;20006;-77